sensor_id;sensor_type;location;lat;lon;timestamp;P1;durP1;ratioP1;P2;durP2;ratioP2
6902;SDS011;20232;49.408;8.702;2023-05-10T04:07:31;3.67;;;3.37;;
6902;SDS011;20232;49.408;8.702;2023-05-10T04:09:56;3.53;;;3.10;;
6902;SDS011;20232;49.408;8.702;2023-05-10T04:12:22;3.53;;;3.10;;
6902;SDS011;20232;49.408;8.702;2023-05-10T04:14:48;4.37;;;3.27;;
6902;SDS011;20232;49.408;8.702;2023-05-10T04:17:13;3.70;;;3.40;;
6902;SDS011;20232;49.408;8.702;2023-05-10T04:19:39;3.47;;;3.20;;
6902;SDS011;20232;49.408;8.702;2023-05-10T04:22:04;4.03;;;3.30;;
6902;SDS011;20232;49.408;8.702;2023-05-10T04:24:30;3.77;;;3.50;;
6902;SDS011;20232;49.408;8.702;2023-05-10T04:26:55;3.90;;;3.40;;
6902;SDS011;20232;49.408;8.702;2023-05-10T04:29:21;3.63;;;3.33;;
6902;SDS011;20232;49.408;8.702;2023-05-10T04:31:46;4.93;;;3.53;;
6902;SDS011;20232;49.408;8.702;2023-05-10T04:34:13;4.13;;;3.63;;
6902;SDS011;20232;49.408;8.702;2023-05-10T04:36:39;3.80;;;3.50;;
6902;SDS011;20232;49.408;8.702;2023-05-10T04:39:04;4.57;;;4.17;;
6902;SDS011;20232;49.408;8.702;2023-05-10T04:41:30;5.13;;;3.77;;
6902;SDS011;20232;49.408;8.702;2023-05-10T04:43:56;5.13;;;4.73;;
6902;SDS011;20232;49.408;8.702;2023-05-10T04:46:21;6.67;;;4.80;;
6902;SDS011;20232;49.408;8.702;2023-05-10T04:48:47;5.27;;;4.87;;
6902;SDS011;20232;49.408;8.702;2023-05-10T04:51:12;5.53;;;5.03;;
6902;SDS011;20232;49.408;8.702;2023-05-10T04:53:38;4.60;;;4.20;;
6902;SDS011;20232;49.408;8.702;2023-05-10T04:56:04;6.60;;;4.33;;
6902;SDS011;20232;49.408;8.702;2023-05-10T04:58:30;4.10;;;3.80;;
6902;SDS011;20232;49.408;8.702;2023-05-10T05:00:55;4.43;;;3.90;;
6902;SDS011;20232;49.408;8.702;2023-05-10T05:03:21;4.60;;;4.20;;
6902;SDS011;20232;49.408;8.702;2023-05-10T05:05:47;4.90;;;4.40;;
6902;SDS011;20232;49.408;8.702;2023-05-10T05:08:12;5.50;;;5.00;;
6902;SDS011;20232;49.408;8.702;2023-05-10T05:10:38;6.17;;;4.70;;
6902;SDS011;20232;49.408;8.702;2023-05-10T05:13:03;5.20;;;4.80;;
6902;SDS011;20232;49.408;8.702;2023-05-10T05:15:29;4.50;;;4.20;;
6902;SDS011;20232;49.408;8.702;2023-05-10T05:17:55;4.30;;;3.90;;
6902;SDS011;20232;49.408;8.702;2023-05-10T05:20:21;4.53;;;4.20;;
6902;SDS011;20232;49.408;8.702;2023-05-10T05:22:47;5.30;;;4.80;;
6902;SDS011;20232;49.408;8.702;2023-05-10T05:25:12;5.27;;;4.77;;
6902;SDS011;20232;49.408;8.702;2023-05-10T05:27:38;6.70;;;5.03;;
6902;SDS011;20232;49.408;8.702;2023-05-10T05:30:04;6.03;;;5.57;;
6902;SDS011;20232;49.408;8.702;2023-05-10T05:32:30;6.37;;;4.50;;
6902;SDS011;20232;49.408;8.702;2023-05-10T05:34:56;5.87;;;4.70;;
6902;SDS011;20232;49.408;8.702;2023-05-10T05:37:21;7.47;;;4.47;;
6902;SDS011;20232;49.408;8.702;2023-05-10T05:39:47;6.37;;;5.03;;
6902;SDS011;20232;49.408;8.702;2023-05-10T05:42:13;5.03;;;4.63;;
6902;SDS011;20232;49.408;8.702;2023-05-10T05:44:41;5.10;;;4.73;;
6902;SDS011;20232;49.408;8.702;2023-05-10T05:47:06;4.97;;;4.57;;
6902;SDS011;20232;49.408;8.702;2023-05-10T05:49:32;4.43;;;4.07;;
6902;SDS011;20232;49.408;8.702;2023-05-10T05:51:58;4.40;;;4.00;;
6902;SDS011;20232;49.408;8.702;2023-05-10T05:54:25;4.77;;;4.27;;
6902;SDS011;20232;49.408;8.702;2023-05-10T05:56:53;4.80;;;4.30;;
6902;SDS011;20232;49.408;8.702;2023-05-10T05:59:20;5.37;;;4.60;;
6902;SDS011;20232;49.408;8.702;2023-05-10T06:01:46;5.70;;;4.73;;
6902;SDS011;20232;49.408;8.702;2023-05-10T06:04:11;5.33;;;4.77;;
6902;SDS011;20232;49.408;8.702;2023-05-10T06:06:37;5.03;;;4.53;;
6902;SDS011;20232;49.408;8.702;2023-05-10T06:09:03;5.97;;;4.80;;
6902;SDS011;20232;49.408;8.702;2023-05-10T06:11:28;7.07;;;4.60;;
6902;SDS011;20232;49.408;8.702;2023-05-10T06:13:55;4.97;;;4.50;;
6902;SDS011;20232;49.408;8.702;2023-05-10T06:16:21;5.57;;;5.00;;
6902;SDS011;20232;49.408;8.702;2023-05-10T06:18:46;5.00;;;4.70;;
6902;SDS011;20232;49.408;8.702;2023-05-10T06:21:12;5.60;;;5.20;;
6902;SDS011;20232;49.408;8.702;2023-05-10T06:23:37;5.80;;;5.20;;
6902;SDS011;20232;49.408;8.702;2023-05-10T06:26:03;5.57;;;5.17;;
6902;SDS011;20232;49.408;8.702;2023-05-10T06:28:28;6.27;;;5.77;;
6902;SDS011;20232;49.408;8.702;2023-05-10T06:30:56;6.53;;;5.70;;
6902;SDS011;20232;49.408;8.702;2023-05-10T06:33:21;5.80;;;5.10;;
6902;SDS011;20232;49.408;8.702;2023-05-10T06:35:47;5.90;;;5.30;;
6902;SDS011;20232;49.408;8.702;2023-05-10T06:38:12;5.57;;;4.90;;
6902;SDS011;20232;49.408;8.702;2023-05-10T06:40:41;5.93;;;5.43;;
6902;SDS011;20232;49.408;8.702;2023-05-10T06:43:07;8.03;;;5.00;;
6902;SDS011;20232;49.408;8.702;2023-05-10T06:45:33;7.13;;;5.10;;
6902;SDS011;20232;49.408;8.702;2023-05-10T06:47:58;6.10;;;5.60;;
6902;SDS011;20232;49.408;8.702;2023-05-10T06:50:24;6.00;;;5.50;;
6902;SDS011;20232;49.408;8.702;2023-05-10T06:52:50;7.00;;;4.97;;
6902;SDS011;20232;49.408;8.702;2023-05-10T06:55:15;6.13;;;5.63;;
6902;SDS011;20232;49.408;8.702;2023-05-10T06:57:41;5.93;;;5.00;;
6902;SDS011;20232;49.408;8.702;2023-05-10T07:00:06;6.00;;;4.93;;
6902;SDS011;20232;49.408;8.702;2023-05-10T07:02:34;5.60;;;5.10;;
6902;SDS011;20232;49.408;8.702;2023-05-10T07:05:00;5.17;;;4.67;;
6902;SDS011;20232;49.408;8.702;2023-05-10T07:07:26;5.80;;;5.30;;
6902;SDS011;20232;49.408;8.702;2023-05-10T07:09:52;6.97;;;4.67;;
6902;SDS011;20232;49.408;8.702;2023-05-10T07:12:17;5.37;;;4.23;;
6902;SDS011;20232;49.408;8.702;2023-05-10T07:14:43;6.83;;;4.90;;
6902;SDS011;20232;49.408;8.702;2023-05-10T07:17:08;4.60;;;4.30;;
6902;SDS011;20232;49.408;8.702;2023-05-10T07:19:34;4.80;;;4.20;;
6902;SDS011;20232;49.408;8.702;2023-05-10T07:22:00;5.17;;;4.63;;
6902;SDS011;20232;49.408;8.702;2023-05-10T07:24:26;6.33;;;4.80;;
6902;SDS011;20232;49.408;8.702;2023-05-10T07:26:52;4.63;;;4.13;;
6902;SDS011;20232;49.408;8.702;2023-05-10T07:29:17;5.83;;;4.57;;
6902;SDS011;20232;49.408;8.702;2023-05-10T07:31:43;6.10;;;4.30;;
6902;SDS011;20232;49.408;8.702;2023-05-10T07:34:08;4.30;;;4.00;;
6902;SDS011;20232;49.408;8.702;2023-05-10T07:36:34;5.63;;;4.30;;
6902;SDS011;20232;49.408;8.702;2023-05-10T07:39:00;6.27;;;4.33;;
6902;SDS011;20232;49.408;8.702;2023-05-10T07:41:26;4.73;;;4.20;;
6902;SDS011;20232;49.408;8.702;2023-05-10T07:43:52;5.97;;;3.57;;
6902;SDS011;20232;49.408;8.702;2023-05-10T07:46:17;7.33;;;4.00;;
6902;SDS011;20232;49.408;8.702;2023-05-10T07:48:44;4.00;;;3.70;;
6902;SDS011;20232;49.408;8.702;2023-05-10T07:51:10;3.60;;;3.30;;
6902;SDS011;20232;49.408;8.702;2023-05-10T07:53:35;7.20;;;4.20;;
6902;SDS011;20232;49.408;8.702;2023-05-10T07:58:54;5.13;;;3.53;;
6902;SDS011;20232;49.408;8.702;2023-05-10T08:01:20;4.90;;;3.50;;
6902;SDS011;20232;49.408;8.702;2023-05-10T08:03:46;4.23;;;3.10;;
6902;SDS011;20232;49.408;8.702;2023-05-10T08:06:12;5.27;;;2.90;;
6902;SDS011;20232;49.408;8.702;2023-05-10T08:08:38;3.87;;;3.10;;
6902;SDS011;20232;49.408;8.702;2023-05-10T08:11:03;4.53;;;3.00;;
6902;SDS011;20232;49.408;8.702;2023-05-10T08:13:29;4.20;;;2.90;;
6902;SDS011;20232;49.408;8.702;2023-05-10T08:15:56;3.13;;;2.73;;
6902;SDS011;20232;49.408;8.702;2023-05-10T08:18:21;3.73;;;2.77;;
6902;SDS011;20232;49.408;8.702;2023-05-10T08:20:47;4.37;;;2.70;;
6902;SDS011;20232;49.408;8.702;2023-05-10T08:23:13;3.00;;;2.67;;
6902;SDS011;20232;49.408;8.702;2023-05-10T08:25:38;3.87;;;2.70;;
6902;SDS011;20232;49.408;8.702;2023-05-10T08:28:04;2.97;;;2.50;;
6902;SDS011;20232;49.408;8.702;2023-05-10T08:30:30;2.80;;;2.60;;
6902;SDS011;20232;49.408;8.702;2023-05-10T08:32:56;3.63;;;2.70;;
6902;SDS011;20232;49.408;8.702;2023-05-10T08:35:21;4.73;;;1.90;;
6902;SDS011;20232;49.408;8.702;2023-05-10T08:37:47;2.30;;;2.10;;
6902;SDS011;20232;49.408;8.702;2023-05-10T08:40:13;2.47;;;2.20;;
6902;SDS011;20232;49.408;8.702;2023-05-10T08:42:42;2.27;;;2.00;;
6902;SDS011;20232;49.408;8.702;2023-05-10T08:45:12;2.70;;;1.83;;
6902;SDS011;20232;49.408;8.702;2023-05-10T08:47:40;2.13;;;2.00;;
6902;SDS011;20232;49.408;8.702;2023-05-10T08:50:06;2.20;;;2.00;;
6902;SDS011;20232;49.408;8.702;2023-05-10T08:52:33;3.83;;;1.97;;
6902;SDS011;20232;49.408;8.702;2023-05-10T08:55:03;1.90;;;1.80;;
6902;SDS011;20232;49.408;8.702;2023-05-10T08:57:29;1.60;;;1.50;;
6902;SDS011;20232;49.408;8.702;2023-05-10T08:59:55;3.43;;;1.70;;
6902;SDS011;20232;49.408;8.702;2023-05-10T09:02:20;1.70;;;1.60;;
6902;SDS011;20232;49.408;8.702;2023-05-10T09:04:48;3.03;;;1.90;;
6902;SDS011;20232;49.408;8.702;2023-05-10T09:07:13;3.90;;;2.00;;
6902;SDS011;20232;49.408;8.702;2023-05-10T09:09:39;1.70;;;1.60;;
6902;SDS011;20232;49.408;8.702;2023-05-10T09:12:05;1.90;;;1.80;;
6902;SDS011;20232;49.408;8.702;2023-05-10T09:14:32;4.10;;;1.90;;
6902;SDS011;20232;49.408;8.702;2023-05-10T09:16:59;2.57;;;1.60;;
6902;SDS011;20232;49.408;8.702;2023-05-10T09:19:25;1.60;;;1.50;;
6902;SDS011;20232;49.408;8.702;2023-05-10T09:21:52;1.60;;;1.50;;
6902;SDS011;20232;49.408;8.702;2023-05-10T09:24:18;3.43;;;1.60;;
6902;SDS011;20232;49.408;8.702;2023-05-10T09:26:47;2.13;;;1.60;;
6902;SDS011;20232;49.408;8.702;2023-05-10T09:29:16;2.83;;;1.50;;
6902;SDS011;20232;49.408;8.702;2023-05-10T09:34:20;1.67;;;1.47;;
6902;SDS011;20232;49.408;8.702;2023-05-10T09:36:54;1.70;;;1.60;;
6902;SDS011;20232;49.408;8.702;2023-05-10T09:39:29;3.27;;;1.60;;
6902;SDS011;20232;49.408;8.702;2023-05-10T09:41:59;2.23;;;1.47;;
6902;SDS011;20232;49.408;8.702;2023-05-10T09:44:28;2.23;;;1.57;;
6902;SDS011;20232;49.408;8.702;2023-05-10T09:46:54;1.67;;;1.40;;
6902;SDS011;20232;49.408;8.702;2023-05-10T09:49:20;2.50;;;1.50;;
6902;SDS011;20232;49.408;8.702;2023-05-10T09:51:46;3.00;;;1.80;;
6902;SDS011;20232;49.408;8.702;2023-05-10T09:54:13;1.60;;;1.50;;
6902;SDS011;20232;49.408;8.702;2023-05-10T09:56:41;1.80;;;1.60;;
6902;SDS011;20232;49.408;8.702;2023-05-10T09:59:11;1.80;;;1.70;;
6902;SDS011;20232;49.408;8.702;2023-05-10T10:01:37;3.17;;;1.50;;
6902;SDS011;20232;49.408;8.702;2023-05-10T10:04:04;1.43;;;1.33;;
6902;SDS011;20232;49.408;8.702;2023-05-10T10:06:38;1.77;;;1.30;;
6902;SDS011;20232;49.408;8.702;2023-05-10T10:09:05;1.57;;;1.33;;
6902;SDS011;20232;49.408;8.702;2023-05-10T10:11:31;1.93;;;1.33;;
6902;SDS011;20232;49.408;8.702;2023-05-10T10:13:57;2.57;;;1.40;;
6902;SDS011;20232;49.408;8.702;2023-05-10T10:16:24;1.33;;;1.23;;
6902;SDS011;20232;49.408;8.702;2023-05-10T10:18:50;1.83;;;1.30;;
6902;SDS011;20232;49.408;8.702;2023-05-10T10:21:15;3.07;;;1.50;;
6902;SDS011;20232;49.408;8.702;2023-05-10T10:23:42;4.60;;;1.57;;
6902;SDS011;20232;49.408;8.702;2023-05-10T10:26:08;1.80;;;1.50;;
6902;SDS011;20232;49.408;8.702;2023-05-10T10:31:49;1.73;;;1.30;;
6902;SDS011;20232;49.408;8.702;2023-05-10T10:36:56;1.47;;;1.37;;
6902;SDS011;20232;49.408;8.702;2023-05-10T10:39:23;3.73;;;1.80;;
6902;SDS011;20232;49.408;8.702;2023-05-10T10:41:55;4.47;;;1.50;;
6902;SDS011;20232;49.408;8.702;2023-05-10T10:49:31;1.63;;;1.53;;
6902;SDS011;20232;49.408;8.702;2023-05-10T10:52:14;1.93;;;1.50;;
6902;SDS011;20232;49.408;8.702;2023-05-10T10:54:50;2.87;;;1.47;;
6902;SDS011;20232;49.408;8.702;2023-05-10T10:57:25;3.53;;;1.40;;
6902;SDS011;20232;49.408;8.702;2023-05-10T11:03:10;1.60;;;1.50;;
6902;SDS011;20232;49.408;8.702;2023-05-10T11:05:42;1.30;;;1.30;;
6902;SDS011;20232;49.408;8.702;2023-05-10T11:08:17;2.03;;;1.50;;
6902;SDS011;20232;49.408;8.702;2023-05-10T11:11:03;3.37;;;1.20;;
6902;SDS011;20232;49.408;8.702;2023-05-10T11:13:37;2.60;;;1.70;;
6902;SDS011;20232;49.408;8.702;2023-05-10T11:18:37;3.63;;;1.33;;
6902;SDS011;20232;49.408;8.702;2023-05-10T11:21:03;1.77;;;1.40;;
6902;SDS011;20232;49.408;8.702;2023-05-10T11:23:32;1.93;;;1.50;;
6902;SDS011;20232;49.408;8.702;2023-05-10T11:26:12;3.23;;;1.40;;
6902;SDS011;20232;49.408;8.702;2023-05-10T11:28:41;1.57;;;1.20;;
6902;SDS011;20232;49.408;8.702;2023-05-10T11:31:14;2.03;;;1.43;;
6902;SDS011;20232;49.408;8.702;2023-05-10T11:33:48;3.57;;;1.30;;
6902;SDS011;20232;49.408;8.702;2023-05-10T11:36:19;1.70;;;1.30;;
6902;SDS011;20232;49.408;8.702;2023-05-10T11:38:57;1.80;;;1.60;;
6902;SDS011;20232;49.408;8.702;2023-05-10T11:41:23;2.80;;;1.33;;
6902;SDS011;20232;49.408;8.702;2023-05-10T11:43:50;2.40;;;1.70;;
6902;SDS011;20232;49.408;8.702;2023-05-10T11:46:18;1.97;;;1.10;;
6902;SDS011;20232;49.408;8.702;2023-05-10T11:48:46;1.37;;;1.00;;
6902;SDS011;20232;49.408;8.702;2023-05-10T11:51:15;5.27;;;1.20;;
6902;SDS011;20232;49.408;8.702;2023-05-10T11:53:44;2.77;;;1.10;;
6902;SDS011;20232;49.408;8.702;2023-05-10T11:56:10;2.60;;;1.17;;
6902;SDS011;20232;49.408;8.702;2023-05-10T11:58:36;2.37;;;1.20;;
6902;SDS011;20232;49.408;8.702;2023-05-10T12:01:04;1.70;;;1.20;;
6902;SDS011;20232;49.408;8.702;2023-05-10T12:03:30;3.17;;;1.13;;
6902;SDS011;20232;49.408;8.702;2023-05-10T12:05:57;1.27;;;1.00;;
6902;SDS011;20232;49.408;8.702;2023-05-10T12:08:24;1.67;;;1.00;;
6902;SDS011;20232;49.408;8.702;2023-05-10T12:10:51;2.50;;;1.03;;
6902;SDS011;20232;49.408;8.702;2023-05-10T12:13:17;1.70;;;0.93;;
6902;SDS011;20232;49.408;8.702;2023-05-10T12:15:44;1.63;;;1.17;;
6902;SDS011;20232;49.408;8.702;2023-05-10T12:18:10;1.17;;;0.93;;
6902;SDS011;20232;49.408;8.702;2023-05-10T12:20:36;2.20;;;1.10;;
6902;SDS011;20232;49.408;8.702;2023-05-10T12:23:02;1.37;;;1.10;;
6902;SDS011;20232;49.408;8.702;2023-05-10T12:25:32;1.77;;;1.10;;
6902;SDS011;20232;49.408;8.702;2023-05-10T12:27:58;2.70;;;1.30;;
6902;SDS011;20232;49.408;8.702;2023-05-10T12:30:29;3.43;;;1.50;;
6902;SDS011;20232;49.408;8.702;2023-05-10T12:33:00;3.57;;;1.20;;
6902;SDS011;20232;49.408;8.702;2023-05-10T12:35:42;3.67;;;1.30;;
6902;SDS011;20232;49.408;8.702;2023-05-10T12:40:58;5.03;;;1.47;;
6902;SDS011;20232;49.408;8.702;2023-05-10T12:43:28;4.17;;;1.40;;
6902;SDS011;20232;49.408;8.702;2023-05-10T12:45:53;3.27;;;1.50;;
6902;SDS011;20232;49.408;8.702;2023-05-10T12:48:19;3.47;;;1.40;;
6902;SDS011;20232;49.408;8.702;2023-05-10T12:50:45;3.13;;;1.50;;
6902;SDS011;20232;49.408;8.702;2023-05-10T12:53:11;3.00;;;1.60;;
6902;SDS011;20232;49.408;8.702;2023-05-10T12:55:38;1.50;;;1.27;;
6902;SDS011;20232;49.408;8.702;2023-05-10T12:58:04;3.13;;;1.37;;
6902;SDS011;20232;49.408;8.702;2023-05-10T13:00:30;1.97;;;1.30;;
6902;SDS011;20232;49.408;8.702;2023-05-10T13:02:55;2.43;;;1.10;;
6902;SDS011;20232;49.408;8.702;2023-05-10T13:05:21;1.87;;;1.13;;
6902;SDS011;20232;49.408;8.702;2023-05-10T13:07:46;3.07;;;1.10;;
6902;SDS011;20232;49.408;8.702;2023-05-10T13:10:12;1.70;;;1.43;;
6902;SDS011;20232;49.408;8.702;2023-05-10T13:12:38;1.77;;;1.33;;
6902;SDS011;20232;49.408;8.702;2023-05-10T13:15:03;1.70;;;1.10;;
6902;SDS011;20232;49.408;8.702;2023-05-10T13:17:29;2.87;;;1.30;;
6902;SDS011;20232;49.408;8.702;2023-05-10T13:19:55;1.70;;;0.90;;
6902;SDS011;20232;49.408;8.702;2023-05-10T13:22:20;3.80;;;1.20;;
6902;SDS011;20232;49.408;8.702;2023-05-10T13:24:46;4.07;;;1.07;;
6902;SDS011;20232;49.408;8.702;2023-05-10T13:27:12;3.40;;;1.20;;
6902;SDS011;20232;49.408;8.702;2023-05-10T13:29:37;1.23;;;1.00;;
6902;SDS011;20232;49.408;8.702;2023-05-10T13:32:03;2.80;;;1.10;;
6902;SDS011;20232;49.408;8.702;2023-05-10T13:34:29;2.53;;;1.10;;
6902;SDS011;20232;49.408;8.702;2023-05-10T13:36:54;2.63;;;1.17;;
6902;SDS011;20232;49.408;8.702;2023-05-10T13:39:21;2.37;;;1.00;;
6902;SDS011;20232;49.408;8.702;2023-05-10T13:41:47;3.50;;;1.10;;
6902;SDS011;20232;49.408;8.702;2023-05-10T13:44:13;3.07;;;1.10;;
6902;SDS011;20232;49.408;8.702;2023-05-10T13:46:39;2.30;;;1.10;;
6902;SDS011;20232;49.408;8.702;2023-05-10T13:49:08;2.27;;;0.97;;
6902;SDS011;20232;49.408;8.702;2023-05-10T13:51:34;1.97;;;1.00;;
6902;SDS011;20232;49.408;8.702;2023-05-10T13:54:00;1.10;;;1.00;;
6902;SDS011;20232;49.408;8.702;2023-05-10T13:56:26;1.83;;;0.80;;
6902;SDS011;20232;49.408;8.702;2023-05-10T13:58:52;1.50;;;1.00;;
6902;SDS011;20232;49.408;8.702;2023-05-10T14:01:17;2.27;;;1.37;;
6902;SDS011;20232;49.408;8.702;2023-05-10T14:03:43;2.93;;;1.00;;
6902;SDS011;20232;49.408;8.702;2023-05-10T14:06:09;2.20;;;1.10;;
6902;SDS011;20232;49.408;8.702;2023-05-10T14:08:35;2.23;;;1.07;;
6902;SDS011;20232;49.408;8.702;2023-05-10T14:11:00;2.27;;;1.07;;
6902;SDS011;20232;49.408;8.702;2023-05-10T14:13:26;2.03;;;1.00;;
6902;SDS011;20232;49.408;8.702;2023-05-10T14:15:53;2.40;;;0.80;;
6902;SDS011;20232;49.408;8.702;2023-05-10T14:18:19;2.07;;;0.80;;
6902;SDS011;20232;49.408;8.702;2023-05-10T14:20:45;2.47;;;1.10;;
6902;SDS011;20232;49.408;8.702;2023-05-10T14:23:10;1.57;;;1.00;;
6902;SDS011;20232;49.408;8.702;2023-05-10T14:25:37;1.70;;;0.90;;
6902;SDS011;20232;49.408;8.702;2023-05-10T14:28:04;1.40;;;1.00;;
6902;SDS011;20232;49.408;8.702;2023-05-10T14:30:31;1.27;;;0.90;;
6902;SDS011;20232;49.408;8.702;2023-05-10T14:32:57;1.03;;;0.90;;
6902;SDS011;20232;49.408;8.702;2023-05-10T14:35:23;2.00;;;1.03;;
6902;SDS011;20232;49.408;8.702;2023-05-10T14:37:48;2.83;;;1.10;;
6902;SDS011;20232;49.408;8.702;2023-05-10T14:40:14;1.90;;;1.10;;
6902;SDS011;20232;49.408;8.702;2023-05-10T14:42:40;3.63;;;0.90;;
6902;SDS011;20232;49.408;8.702;2023-05-10T14:45:07;1.60;;;0.80;;
6902;SDS011;20232;49.408;8.702;2023-05-10T14:47:33;2.37;;;0.93;;
6902;SDS011;20232;49.408;8.702;2023-05-10T14:49:59;1.27;;;1.07;;
6902;SDS011;20232;49.408;8.702;2023-05-10T14:52:25;2.43;;;1.00;;
6902;SDS011;20232;49.408;8.702;2023-05-10T14:54:50;3.57;;;1.10;;
6902;SDS011;20232;49.408;8.702;2023-05-10T14:57:16;2.47;;;1.00;;
6902;SDS011;20232;49.408;8.702;2023-05-10T14:59:42;3.30;;;1.00;;
6902;SDS011;20232;49.408;8.702;2023-05-10T15:02:07;3.37;;;1.10;;
6902;SDS011;20232;49.408;8.702;2023-05-10T15:04:33;0.80;;;0.80;;
6902;SDS011;20232;49.408;8.702;2023-05-10T15:06:58;2.10;;;0.90;;
6902;SDS011;20232;49.408;8.702;2023-05-10T15:09:25;1.47;;;0.90;;
6902;SDS011;20232;49.408;8.702;2023-05-10T15:11:52;2.03;;;0.90;;
6902;SDS011;20232;49.408;8.702;2023-05-10T15:14:18;2.13;;;0.90;;
6902;SDS011;20232;49.408;8.702;2023-05-10T15:16:43;1.90;;;1.00;;
6902;SDS011;20232;49.408;8.702;2023-05-10T15:19:09;3.13;;;1.20;;
6902;SDS011;20232;49.408;8.702;2023-05-10T15:21:34;2.40;;;1.07;;
6902;SDS011;20232;49.408;8.702;2023-05-10T15:24:04;2.73;;;1.00;;
6902;SDS011;20232;49.408;8.702;2023-05-10T15:26:30;1.77;;;1.10;;
6902;SDS011;20232;49.408;8.702;2023-05-10T15:28:56;1.80;;;1.00;;
6902;SDS011;20232;49.408;8.702;2023-05-10T15:31:21;1.40;;;1.17;;
6902;SDS011;20232;49.408;8.702;2023-05-10T15:33:47;3.73;;;1.30;;
6902;SDS011;20232;49.408;8.702;2023-05-10T15:36:12;3.07;;;1.20;;
6902;SDS011;20232;49.408;8.702;2023-05-10T15:38:38;1.20;;;1.10;;
6902;SDS011;20232;49.408;8.702;2023-05-10T15:41:04;2.30;;;1.13;;
6902;SDS011;20232;49.408;8.702;2023-05-10T15:43:29;2.60;;;1.00;;
6902;SDS011;20232;49.408;8.702;2023-05-10T15:45:55;1.13;;;0.93;;
6902;SDS011;20232;49.408;8.702;2023-05-10T15:48:20;1.90;;;1.00;;
6902;SDS011;20232;49.408;8.702;2023-05-10T15:50:46;1.80;;;0.93;;
6902;SDS011;20232;49.408;8.702;2023-05-10T15:53:11;1.60;;;0.93;;
6902;SDS011;20232;49.408;8.702;2023-05-10T15:55:37;1.67;;;1.03;;
6902;SDS011;20232;49.408;8.702;2023-05-10T15:58:02;3.63;;;1.37;;
6902;SDS011;20232;49.408;8.702;2023-05-10T16:00:28;1.00;;;0.90;;
6902;SDS011;20232;49.408;8.702;2023-05-10T16:02:54;2.13;;;1.07;;
6902;SDS011;20232;49.408;8.702;2023-05-10T16:05:19;1.87;;;0.90;;
6902;SDS011;20232;49.408;8.702;2023-05-10T16:07:46;2.77;;;1.10;;
6902;SDS011;20232;49.408;8.702;2023-05-10T16:10:11;4.40;;;1.77;;
6902;SDS011;20232;49.408;8.702;2023-05-10T16:12:37;3.47;;;1.03;;
6902;SDS011;20232;49.408;8.702;2023-05-10T16:15:03;0.83;;;0.80;;
6902;SDS011;20232;49.408;8.702;2023-05-10T16:17:29;1.47;;;1.13;;
6902;SDS011;20232;49.408;8.702;2023-05-10T16:19:55;1.57;;;0.90;;
6902;SDS011;20232;49.408;8.702;2023-05-10T16:22:20;2.10;;;0.97;;
6902;SDS011;20232;49.408;8.702;2023-05-10T16:24:50;2.00;;;0.83;;
6902;SDS011;20232;49.408;8.702;2023-05-10T16:27:17;2.53;;;0.90;;
6902;SDS011;20232;49.408;8.702;2023-05-10T16:29:43;1.07;;;1.00;;
6902;SDS011;20232;49.408;8.702;2023-05-10T16:32:08;3.17;;;1.10;;
6902;SDS011;20232;49.408;8.702;2023-05-10T16:34:34;3.07;;;1.10;;
6902;SDS011;20232;49.408;8.702;2023-05-10T16:37:00;3.97;;;1.27;;
6902;SDS011;20232;49.408;8.702;2023-05-10T16:39:25;2.47;;;1.00;;
6902;SDS011;20232;49.408;8.702;2023-05-10T16:41:51;2.70;;;1.20;;
6902;SDS011;20232;49.408;8.702;2023-05-10T16:44:16;2.20;;;1.20;;
6902;SDS011;20232;49.408;8.702;2023-05-10T16:46:42;3.37;;;2.30;;
6902;SDS011;20232;49.408;8.702;2023-05-10T16:49:08;1.47;;;0.93;;
6902;SDS011;20232;49.408;8.702;2023-05-10T16:51:33;1.60;;;1.13;;
6902;SDS011;20232;49.408;8.702;2023-05-10T16:53:59;3.33;;;1.10;;
6902;SDS011;20232;49.408;8.702;2023-05-10T16:56:25;6.63;;;1.33;;
6902;SDS011;20232;49.408;8.702;2023-05-10T16:58:51;1.53;;;0.90;;
6902;SDS011;20232;49.408;8.702;2023-05-10T17:01:17;2.03;;;1.10;;
6902;SDS011;20232;49.408;8.702;2023-05-10T17:03:43;1.00;;;1.00;;
6902;SDS011;20232;49.408;8.702;2023-05-10T17:06:08;2.27;;;1.23;;
6902;SDS011;20232;49.408;8.702;2023-05-10T17:08:35;2.67;;;1.20;;
6902;SDS011;20232;49.408;8.702;2023-05-10T17:11:01;2.77;;;1.00;;
6902;SDS011;20232;49.408;8.702;2023-05-10T17:13:27;4.27;;;1.00;;
6902;SDS011;20232;49.408;8.702;2023-05-10T17:15:53;2.60;;;1.00;;
6902;SDS011;20232;49.408;8.702;2023-05-10T17:18:19;2.93;;;1.13;;
6902;SDS011;20232;49.408;8.702;2023-05-10T17:20:44;5.00;;;1.60;;
6902;SDS011;20232;49.408;8.702;2023-05-10T17:23:10;5.47;;;1.40;;
6902;SDS011;20232;49.408;8.702;2023-05-10T17:25:35;4.13;;;1.90;;
6902;SDS011;20232;49.408;8.702;2023-05-10T17:28:01;1.60;;;1.20;;
6902;SDS011;20232;49.408;8.702;2023-05-10T17:30:29;2.87;;;1.40;;
6902;SDS011;20232;49.408;8.702;2023-05-10T17:32:57;4.47;;;1.30;;
6902;SDS011;20232;49.408;8.702;2023-05-10T17:35:24;1.50;;;1.27;;
6902;SDS011;20232;49.408;8.702;2023-05-10T17:37:49;3.03;;;1.10;;
6902;SDS011;20232;49.408;8.702;2023-05-10T17:40:15;3.20;;;1.23;;
6902;SDS011;20232;49.408;8.702;2023-05-10T17:42:41;1.73;;;1.20;;
6902;SDS011;20232;49.408;8.702;2023-05-10T17:45:07;1.53;;;1.20;;
6902;SDS011;20232;49.408;8.702;2023-05-10T17:47:33;3.77;;;1.30;;
6902;SDS011;20232;49.408;8.702;2023-05-10T17:49:58;2.67;;;1.30;;
6902;SDS011;20232;49.408;8.702;2023-05-10T17:52:24;3.63;;;1.40;;
6902;SDS011;20232;49.408;8.702;2023-05-10T17:54:49;3.80;;;1.30;;
6902;SDS011;20232;49.408;8.702;2023-05-10T17:57:15;2.20;;;1.13;;
6902;SDS011;20232;49.408;8.702;2023-05-10T17:59:41;3.83;;;1.43;;
6902;SDS011;20232;49.408;8.702;2023-05-10T18:02:06;4.83;;;1.60;;
6902;SDS011;20232;49.408;8.702;2023-05-10T18:04:32;1.47;;;1.37;;
6902;SDS011;20232;49.408;8.702;2023-05-10T18:06:58;4.37;;;1.43;;
6902;SDS011;20232;49.408;8.702;2023-05-10T18:09:27;4.83;;;1.40;;
6902;SDS011;20232;49.408;8.702;2023-05-10T18:11:52;3.63;;;1.30;;
6902;SDS011;20232;49.408;8.702;2023-05-10T18:14:18;3.67;;;1.40;;
6902;SDS011;20232;49.408;8.702;2023-05-10T18:16:45;5.03;;;1.60;;
6902;SDS011;20232;49.408;8.702;2023-05-10T18:19:10;4.30;;;1.73;;
6902;SDS011;20232;49.408;8.702;2023-05-10T18:21:36;3.70;;;1.13;;
6902;SDS011;20232;49.408;8.702;2023-05-10T18:24:02;7.50;;;2.73;;
6902;SDS011;20232;49.408;8.702;2023-05-10T18:26:28;6.30;;;1.40;;
6902;SDS011;20232;49.408;8.702;2023-05-10T18:28:54;3.83;;;2.27;;
6902;SDS011;20232;49.408;8.702;2023-05-10T18:31:19;4.00;;;1.60;;
6902;SDS011;20232;49.408;8.702;2023-05-10T18:33:45;3.50;;;1.60;;
6902;SDS011;20232;49.408;8.702;2023-05-10T18:36:11;2.50;;;1.40;;
6902;SDS011;20232;49.408;8.702;2023-05-10T18:38:36;1.83;;;1.17;;
6902;SDS011;20232;49.408;8.702;2023-05-10T18:41:02;2.23;;;1.10;;
6902;SDS011;20232;49.408;8.702;2023-05-10T18:43:29;2.37;;;1.30;;
6902;SDS011;20232;49.408;8.702;2023-05-10T18:45:55;3.07;;;1.40;;
6902;SDS011;20232;49.408;8.702;2023-05-10T18:48:21;5.50;;;1.20;;
6902;SDS011;20232;49.408;8.702;2023-05-10T18:50:46;4.37;;;1.40;;
6902;SDS011;20232;49.408;8.702;2023-05-10T18:53:12;3.13;;;1.27;;
6902;SDS011;20232;49.408;8.702;2023-05-10T18:55:38;3.83;;;1.43;;
6902;SDS011;20232;49.408;8.702;2023-05-10T18:58:03;3.53;;;1.40;;
6902;SDS011;20232;49.408;8.702;2023-05-10T19:00:29;3.10;;;1.30;;
6902;SDS011;20232;49.408;8.702;2023-05-10T19:02:54;4.80;;;1.20;;
6902;SDS011;20232;49.408;8.702;2023-05-10T19:05:20;2.83;;;1.20;;
6902;SDS011;20232;49.408;8.702;2023-05-10T19:07:51;2.20;;;1.50;;
6902;SDS011;20232;49.408;8.702;2023-05-10T19:10:16;1.30;;;1.20;;
6902;SDS011;20232;49.408;8.702;2023-05-10T19:12:42;4.07;;;1.20;;
6902;SDS011;20232;49.408;8.702;2023-05-10T19:15:07;2.70;;;1.20;;
6902;SDS011;20232;49.408;8.702;2023-05-10T19:17:34;1.37;;;1.20;;
6902;SDS011;20232;49.408;8.702;2023-05-10T19:20:00;3.70;;;1.20;;
6902;SDS011;20232;49.408;8.702;2023-05-10T19:22:26;5.47;;;1.60;;
6902;SDS011;20232;49.408;8.702;2023-05-10T19:24:51;3.27;;;1.40;;
6902;SDS011;20232;49.408;8.702;2023-05-10T19:27:18;3.80;;;1.30;;